Time;durP1;ratioP1;P1;durP2;ratioP2;P2;SDS_P1;SDS_P2;PMS_P1;PMS_P2;Temp;Humidity;BMP_temperature;BMP_pressure;BME280_temperature;BME280_humidity;BME280_pressure;Samples;Min_cycle;Max_cycle;Signal;HPM_P1;HPM_P2
2022/04/29 00:02:23;;;;;;;51.55;17.42;;;;;;;9.12;100.00;102631.53;4995497;28;20042;-81
2022/04/29 00:04:49;;;;;;;55.35;15.10;;;;;;;9.00;100.00;102639.31;4979641;28;20053;-79
2022/04/29 00:07:15;;;;;;;55.33;16.13;;;;;;;9.05;100.00;102627.28;4997907;28;20130;-81
2022/04/29 00:09:41;;;;;;;46.05;14.82;;;;;;;8.98;100.00;102626.66;4996580;28;20035;-81
2022/04/29 00:12:07;;;;;;;54.28;16.38;;;;;;;8.96;100.00;102631.31;4992115;28;20470;-81
2022/04/29 00:14:33;;;;;;;55.47;16.52;;;;;;;8.95;100.00;102619.50;5001490;28;20532;-80
2022/04/29 00:16:59;;;;;;;57.50;15.75;;;;;;;8.89;100.00;102627.09;4984451;28;20529;-81
2022/04/29 00:19:25;;;;;;;65.55;19.05;;;;;;;8.78;100.00;102620.22;4981338;28;20053;-81
2022/04/29 00:21:50;;;;;;;52.97;15.45;;;;;;;8.76;100.00;102619.41;4990586;28;20046;-82
2022/04/29 00:24:16;;;;;;;54.70;16.08;;;;;;;8.81;100.00;102617.34;4984660;28;20058;-79
2022/04/29 00:26:42;;;;;;;65.57;15.77;;;;;;;8.83;100.00;102614.56;4967879;28;20065;-79
2022/04/29 00:29:08;;;;;;;56.45;15.68;;;;;;;8.75;100.00;102616.72;4963897;28;20117;-80
2022/04/29 00:31:35;;;;;;;68.78;15.77;;;;;;;8.73;100.00;102615.91;4979452;28;20042;-81
2022/04/29 00:34:01;;;;;;;49.72;15.88;;;;;;;8.72;100.00;102612.28;4978667;28;20454;-79
2022/04/29 00:36:26;;;;;;;66.60;16.90;;;;;;;8.61;100.00;102620.06;4990489;28;20045;-80
2022/04/29 00:38:52;;;;;;;57.30;14.38;;;;;;;8.59;100.00;102611.03;4981075;28;20117;-81
2022/04/29 00:41:19;;;;;;;43.17;13.88;;;;;;;8.53;100.00;102605.84;4964012;28;20065;-80
2022/04/29 00:43:44;;;;;;;55.10;14.57;;;;;;;8.56;100.00;102611.16;4982016;28;20035;-81
2022/04/29 00:46:10;;;;;;;47.70;14.77;;;;;;;8.41;100.00;102601.75;5009537;28;20068;-81
2022/04/29 00:48:36;;;;;;;42.03;14.27;;;;;;;8.46;100.00;102599.72;4976019;28;20037;-82
2022/04/29 00:51:03;;;;;;;66.15;14.80;;;;;;;8.33;100.00;102607.53;4983414;28;20456;-81
2022/04/29 00:53:29;;;;;;;56.15;14.88;;;;;;;8.29;100.00;102601.28;4981638;28;20121;-81
2022/04/29 00:55:56;;;;;;;52.17;14.43;;;;;;;8.28;100.00;102590.47;4982547;28;20038;-82
2022/04/29 00:58:32;;;;;;;50.47;14.23;;;;;;;8.28;100.00;102596.81;4998330;28;20093;-82
2022/04/29 01:01:00;;;;;;;51.25;14.18;;;;;;;8.27;100.00;102602.31;4992872;28;20034;-82
2022/04/29 01:03:28;;;;;;;51.55;14.88;;;;;;;8.23;100.00;102597.94;4993717;28;20038;-81
2022/04/29 01:05:53;;;;;;;43.75;13.63;;;;;;;8.22;100.00;102602.50;4996932;28;20050;-82
2022/04/29 01:08:19;;;;;;;41.70;13.60;;;;;;;8.17;100.00;102601.81;4997392;28;20087;-81
2022/04/29 01:10:48;;;;;;;49.97;13.48;;;;;;;8.15;100.00;102590.09;4990597;28;20054;-83
2022/04/29 01:13:15;;;;;;;42.00;12.57;;;;;;;8.10;100.00;102598.44;4981517;28;20031;-82
2022/04/29 01:15:41;;;;;;;40.85;11.90;;;;;;;8.13;100.00;102605.59;4994671;28;20040;-81
2022/04/29 01:18:09;;;;;;;34.83;11.77;;;;;;;8.21;100.00;102602.56;4963904;28;20394;-81
2022/04/29 01:20:35;;;;;;;50.40;12.30;;;;;;;8.12;100.00;102590.22;4997960;28;20090;-81
2022/04/29 01:23:08;;;;;;;39.70;11.32;;;;;;;8.22;100.00;102605.25;4996409;28;20046;-82
2022/04/29 01:25:34;;;;;;;43.17;11.98;;;;;;;8.10;100.00;102598.44;4999583;28;20389;-81
2022/04/29 01:27:59;;;;;;;32.78;12.20;;;;;;;8.01;100.00;102589.75;4978913;28;20034;-81
2022/04/29 01:30:25;;;;;;;27.77;11.40;;;;;;;8.02;100.00;102594.28;4978649;28;20053;-80
2022/04/29 01:32:53;;;;;;;29.13;10.80;;;;;;;7.93;100.00;102589.16;4980996;28;20031;-80
2022/04/29 01:35:19;;;;;;;25.00;10.65;;;;;;;7.98;100.00;102582.56;4980339;28;20039;-80
2022/04/29 01:37:44;;;;;;;27.90;10.88;;;;;;;7.96;100.00;102587.19;5003866;28;20034;-81
2022/04/29 01:40:11;;;;;;;27.52;9.73;;;;;;;7.90;100.00;102581.97;5006015;28;20046;-80
2022/04/29 01:42:37;;;;;;;29.05;11.13;;;;;;;7.91;100.00;102576.47;5012395;28;20049;-81
2022/04/29 01:45:03;;;;;;;25.25;10.30;;;;;;;7.82;100.00;102581.41;4984373;28;20038;-79
2022/04/29 01:47:29;;;;;;;25.10;10.10;;;;;;;7.76;100.00;102566.19;5007116;28;20019;-80
2022/04/29 01:49:55;;;;;;;26.00;9.52;;;;;;;7.73;100.00;102567.19;5007934;28;20037;-80
2022/04/29 01:52:20;;;;;;;29.63;10.20;;;;;;;7.76;100.00;102568.91;5008693;28;20030;-80
2022/04/29 01:54:46;;;;;;;35.75;10.93;;;;;;;7.72;100.00;102565.44;5008969;28;20053;-80
2022/04/29 01:57:11;;;;;;;19.10;9.20;;;;;;;7.87;100.00;102568.47;4987149;28;20046;-80
2022/04/29 01:59:37;;;;;;;30.27;9.63;;;;;;;7.69;100.00;102562.81;4999214;28;20045;-80
2022/04/29 02:02:04;;;;;;;24.48;10.57;;;;;;;7.64;100.00;102558.47;5005838;28;20057;-80
2022/04/29 02:04:31;;;;;;;25.58;10.10;;;;;;;7.61;100.00;102558.59;5026077;28;20061;-81
2022/04/29 02:06:57;;;;;;;24.48;9.20;;;;;;;7.50;100.00;102554.47;5000448;28;20061;-80
2022/04/29 02:09:22;;;;;;;24.92;9.73;;;;;;;7.53;100.00;102557.06;5014662;28;20091;-81
2022/04/29 02:12:06;;;;;;;24.10;9.70;;;;;;;7.52;100.00;102557.13;4999789;28;20030;-81
2022/04/29 02:14:40;;;;;;;21.98;8.98;;;;;;;7.44;100.00;102543.78;5017550;28;20034;-81
2022/04/29 02:17:07;;;;;;;23.80;9.70;;;;;;;7.50;100.00;102553.59;5011118;28;20044;-81
2022/04/29 02:19:34;;;;;;;23.08;8.77;;;;;;;7.42;100.00;102559.31;4997039;28;20084;-81
2022/04/29 02:22:01;;;;;;;20.13;9.45;;;;;;;7.45;100.00;102555.59;4996418;28;20077;-81
2022/04/29 02:24:27;;;;;;;22.75;9.20;;;;;;;7.36;100.00;102554.09;4989557;28;20081;-81
2022/04/29 02:26:54;;;;;;;19.13;9.25;;;;;;;7.43;100.00;102558.38;4994948;28;20034;-82
2022/04/29 02:29:19;;;;;;;22.92;8.82;;;;;;;7.37;100.00;102561.34;4970508;28;20034;-81
2022/04/29 02:31:45;;;;;;;19.90;8.85;;;;;;;7.43;100.00;102552.03;5000052;28;20038;-80
2022/04/29 02:34:11;;;;;;;22.77;9.13;;;;;;;7.44;100.00;102548.38;4964574;28;20466;-81
2022/04/29 02:36:37;;;;;;;21.20;9.18;;;;;;;7.37;100.00;102539.53;4987091;28;20098;-81
2022/04/29 02:39:03;;;;;;;39.10;9.45;;;;;;;7.38;100.00;102544.06;5000857;28;20057;-80
2022/04/29 02:41:29;;;;;;;20.90;8.77;;;;;;;7.35;100.00;102547.78;5001504;28;20033;-81
2022/04/29 02:43:55;;;;;;;16.10;9.10;;;;;;;7.36;100.00;102540.47;5000458;28;20031;-80
2022/04/29 02:46:20;;;;;;;23.65;9.02;;;;;;;7.24;100.00;102541.84;5000133;28;20062;-81
2022/04/29 02:48:48;;;;;;;22.80;8.93;;;;;;;7.34;100.00;102537.81;5000005;28;20034;-80
2022/04/29 02:51:15;;;;;;;27.85;9.95;;;;;;;7.25;100.00;102530.00;4984699;28;20034;-79
2022/04/29 02:53:41;;;;;;;18.80;9.07;;;;;;;7.21;100.00;102533.78;4997911;28;20034;-80
2022/04/29 02:56:06;;;;;;;19.83;9.07;;;;;;;7.12;100.00;102529.56;4984973;28;20076;-80
2022/04/29 02:58:32;;;;;;;23.45;8.65;;;;;;;7.11;100.00;102541.41;4976589;28;20030;-79
2022/04/29 03:00:58;;;;;;;22.13;9.27;;;;;;;7.08;100.00;102529.75;4998696;28;20046;-80
2022/04/29 03:03:24;;;;;;;26.98;9.95;;;;;;;7.11;100.00;102540.53;4964543;28;20037;-80
2022/04/29 03:05:49;;;;;;;30.08;10.13;;;;;;;7.22;100.00;102534.69;4979598;28;20191;-80
2022/04/29 03:08:15;;;;;;;18.85;8.75;;;;;;;7.16;100.00;102536.66;4996611;28;20506;-80
2022/04/29 03:10:40;;;;;;;26.17;9.68;;;;;;;7.08;100.00;102530.63;4976529;28;20092;-80
2022/04/29 03:13:06;;;;;;;20.98;8.57;;;;;;;7.09;100.00;102534.25;4996676;28;20072;-79
2022/04/29 03:15:33;;;;;;;18.77;8.27;;;;;;;6.97;100.00;102535.59;5013368;28;20068;-80
2022/04/29 03:20:43;;;;;;;29.15;9.70;;;;;;;7.00;100.00;102543.63;4995917;28;20146;-79
2022/04/29 03:23:10;;;;;;;24.70;9.88;;;;;;;7.02;100.00;102546.31;4967870;28;20048;-79
2022/04/29 03:25:35;;;;;;;20.02;8.85;;;;;;;7.07;100.00;102547.03;4987715;28;20030;-80
2022/04/29 03:28:02;;;;;;;19.60;9.52;;;;;;;7.07;100.00;102549.78;4990542;28;20046;-80
2022/04/29 03:30:27;;;;;;;23.45;9.88;;;;;;;7.00;100.00;102538.19;5004622;28;20387;-81
2022/04/29 03:32:55;;;;;;;26.83;8.68;;;;;;;6.94;100.00;102557.50;4992014;28;20041;-79
2022/04/29 03:35:21;;;;;;;19.42;9.77;;;;;;;6.98;100.00;102549.16;4973665;28;20111;-80
2022/04/29 03:37:51;;;;;;;24.02;9.75;;;;;;;6.97;100.00;102544.66;4996377;28;20096;-80
2022/04/29 03:40:21;;;;;;;23.90;10.52;;;;;;;6.96;100.00;102533.81;5003702;28;20043;-79
2022/04/29 03:42:47;;;;;;;19.80;8.88;;;;;;;6.93;100.00;102534.81;4977144;28;20466;-80
2022/04/29 03:45:13;;;;;;;21.50;10.55;;;;;;;6.90;100.00;102531.31;4980651;28;20049;-80
2022/04/29 03:47:39;;;;;;;24.17;9.80;;;;;;;6.90;100.00;102531.31;4982241;28;20428;-81
2022/04/29 03:50:05;;;;;;;19.08;9.55;;;;;;;6.75;100.00;102514.59;4978852;28;20096;-81
2022/04/29 03:52:31;;;;;;;19.48;10.02;;;;;;;6.77;100.00;102518.16;4983382;28;20045;-81
2022/04/29 03:54:56;;;;;;;25.95;10.50;;;;;;;6.75;100.00;102516.44;4990908;28;20030;-80
2022/04/29 03:57:22;;;;;;;26.20;10.15;;;;;;;6.78;100.00;102519.91;4985666;28;20042;-80
2022/04/29 03:59:49;;;;;;;28.63;10.10;;;;;;;6.77;100.00;102525.41;5009442;28;20034;-79
2022/04/29 04:02:15;;;;;;;21.33;9.55;;;;;;;6.68;100.00;102515.75;4992890;28;20046;-80
2022/04/29 04:04:42;;;;;;;28.80;10.07;;;;;;;6.66;100.00;102512.22;4985746;28;20055;-82
2022/04/29 04:07:07;;;;;;;25.48;10.05;;;;;;;6.63;100.00;102512.31;4980590;28;20048;-82
2022/04/29 04:09:33;;;;;;;23.63;10.18;;;;;;;6.71;100.00;102522.94;4995598;28;20030;-80
2022/04/29 04:11:59;;;;;;;24.00;10.40;;;;;;;6.70;100.00;102532.03;4977382;28;20039;-80
2022/04/29 04:14:24;;;;;;;31.00;10.68;;;;;;;6.80;100.00;102539.84;4982045;28;20098;-81
2022/04/29 04:16:50;;;;;;;19.67;10.30;;;;;;;6.88;100.00;102538.66;4980757;28;20034;-80
2022/04/29 04:19:16;;;;;;;24.45;10.65;;;;;;;6.86;100.00;102535.09;4980509;28;20125;-80
2022/04/29 04:21:42;;;;;;;25.40;10.23;;;;;;;6.81;100.00;102525.25;4976627;28;20052;-80
2022/04/29 04:24:08;;;;;;;28.30;10.57;;;;;;;6.87;100.00;102531.41;4969515;28;20047;-79
2022/04/29 04:26:34;;;;;;;23.98;10.30;;;;;;;6.84;100.00;102527.00;4991180;28;20057;-79
2022/04/29 04:28:59;;;;;;;18.40;10.32;;;;;;;6.76;100.00;102529.97;4995663;28;20042;-80
2022/04/29 04:31:25;;;;;;;28.60;10.35;;;;;;;6.80;100.00;102514.41;4995390;28;20038;-80
2022/04/29 04:33:51;;;;;;;23.10;9.60;;;;;;;6.84;100.00;102509.75;5003152;28;20063;-80
2022/04/29 04:36:17;;;;;;;20.48;9.80;;;;;;;6.79;100.00;102516.25;4974650;28;20030;-81
2022/04/29 04:38:44;;;;;;;25.40;10.50;;;;;;;6.67;100.00;102497.63;4977410;28;20046;-80
2022/04/29 04:41:13;;;;;;;22.00;10.68;;;;;;;6.81;100.00;102521.66;4974715;28;20045;-80
2022/04/29 04:43:38;;;;;;;22.85;10.25;;;;;;;6.87;100.00;102517.81;4991492;28;20379;-81
2022/04/29 04:46:06;;;;;;;28.15;11.15;;;;;;;6.84;100.00;102507.03;5009298;28;20162;-78
2022/04/29 04:48:32;;;;;;;23.10;10.13;;;;;;;6.80;100.00;102512.63;5003817;28;20041;-79
2022/04/29 04:51:01;;;;;;;27.08;10.90;;;;;;;6.92;100.00;102518.53;4980447;28;20038;-80
2022/04/29 04:53:27;;;;;;;24.25;10.55;;;;;;;6.88;100.00;102517.75;4988984;28;20105;-79
2022/04/29 04:55:53;;;;;;;22.95;11.10;;;;;;;6.87;100.00;102513.28;4978522;28;20042;-80
2022/04/29 04:58:18;;;;;;;31.98;10.38;;;;;;;6.87;100.00;102518.72;4995890;28;20378;-80
2022/04/29 05:00:44;;;;;;;21.83;10.50;;;;;;;6.81;100.00;102517.09;4991896;28;20038;-79
2022/04/29 05:03:10;;;;;;;23.13;10.32;;;;;;;6.88;100.00;102519.59;4990904;28;20026;-79
2022/04/29 05:05:35;;;;;;;21.40;10.43;;;;;;;6.88;100.00;102514.16;4975402;28;20050;-79
2022/04/29 05:08:01;;;;;;;16.95;10.70;;;;;;;6.81;100.00;102519.81;4959050;28;20426;-79
2022/04/29 05:10:26;;;;;;;21.45;11.05;;;;;;;6.87;100.00;102521.44;4963334;28;20121;-80
2022/04/29 05:12:51;;;;;;;27.98;10.57;;;;;;;6.83;100.00;102522.47;4979787;28;20410;-80
2022/04/29 05:15:17;;;;;;;33.28;11.82;;;;;;;6.93;100.00;102518.47;4986765;28;20034;-80
2022/04/29 05:17:43;;;;;;;24.35;10.73;;;;;;;6.93;100.00;102528.47;4976504;28;20034;-80
2022/04/29 05:20:11;;;;;;;24.80;11.63;;;;;;;6.91;100.00;102528.53;4976742;28;20034;-78
2022/04/29 05:22:37;;;;;;;22.10;10.57;;;;;;;7.04;100.00;102528.09;4958676;28;20153;-80
2022/04/29 05:25:07;;;;;;;25.27;11.52;;;;;;;7.12;100.00;102529.56;4990305;28;20103;-78
2022/04/29 05:27:33;;;;;;;24.77;10.50;;;;;;;7.15;100.00;102525.88;4997799;28;20355;-79
2022/04/29 05:29:58;;;;;;;27.60;11.50;;;;;;;7.12;100.00;102529.56;4972421;28;20062;-80
2022/04/29 05:32:25;;;;;;;18.27;10.68;;;;;;;7.09;100.00;102529.69;4974855;28;20090;-79
2022/04/29 05:34:52;;;;;;;20.75;10.90;;;;;;;7.06;100.00;102526.19;4978550;28;20053;-79
2022/04/29 05:37:19;;;;;;;35.53;11.63;;;;;;;7.03;100.00;102529.91;5005166;28;20045;-78
2022/04/29 05:42:28;;;;;;;33.42;10.48;;;;;;;7.14;100.00;102519.50;4989180;28;20061;-78
2022/04/29 05:44:54;;;;;;;29.50;12.07;;;;;;;7.24;100.00;102525.50;4991008;28;20054;-78
2022/04/29 05:47:20;;;;;;;26.20;11.60;;;;;;;7.24;100.00;102519.16;4978198;28;20030;-79
2022/04/29 05:49:45;;;;;;;27.00;10.85;;;;;;;7.35;100.00;102528.69;4993235;28;20046;-80
2022/04/29 05:52:11;;;;;;;30.33;12.30;;;;;;;7.26;100.00;102526.31;4993354;28;20053;-80
2022/04/29 05:54:37;;;;;;;22.33;11.13;;;;;;;7.21;100.00;102527.44;4991058;28;20438;-81
2022/04/29 05:57:03;;;;;;;26.30;11.40;;;;;;;7.28;100.00;102526.25;5010647;28;20042;-81
2022/04/29 05:59:32;;;;;;;25.88;10.93;;;;;;;7.28;100.00;102527.16;4994572;28;20080;-80
2022/04/29 06:01:58;;;;;;;26.80;12.48;;;;;;;7.14;100.00;102533.13;5006676;28;20055;-81
2022/04/29 06:04:23;;;;;;;23.48;11.07;;;;;;;7.18;100.00;102532.06;4992571;28;20054;-80
2022/04/29 06:06:49;;;;;;;25.80;11.15;;;;;;;7.30;100.00;102536.16;4993023;28;20129;-80
2022/04/29 06:09:15;;;;;;;24.75;11.38;;;;;;;7.32;100.00;102544.28;4988786;28;20054;-80
2022/04/29 06:11:41;;;;;;;25.00;11.63;;;;;;;7.40;100.00;102547.59;4987731;28;20434;-81
2022/04/29 06:14:06;;;;;;;25.73;11.98;;;;;;;7.41;100.00;102546.66;4982093;28;20054;-79
2022/04/29 06:16:32;;;;;;;30.75;11.77;;;;;;;7.24;100.00;102538.22;4990121;28;20034;-79
2022/04/29 06:19:00;;;;;;;29.80;12.38;;;;;;;7.35;100.00;102530.53;4960874;28;20454;-80
2022/04/29 06:21:25;;;;;;;23.15;12.20;;;;;;;7.44;100.00;102541.06;4995535;28;20038;-80
2022/04/29 06:23:51;;;;;;;31.45;11.88;;;;;;;7.49;100.00;102536.34;4977195;28;20045;-78
2022/04/29 06:26:16;;;;;;;25.17;11.48;;;;;;;7.46;100.00;102533.75;4976458;28;20042;-78
2022/04/29 06:28:42;;;;;;;23.98;12.32;;;;;;;7.50;100.00;102543.56;4976732;28;20043;-79
2022/04/29 06:31:08;;;;;;;31.17;12.70;;;;;;;7.62;100.00;102546.75;4969927;28;20053;-79
2022/04/29 06:33:34;;;;;;;22.92;11.52;;;;;;;7.71;100.00;102544.56;4973320;28;20390;-78
2022/04/29 06:36:01;;;;;;;32.08;12.30;;;;;;;7.71;100.00;102530.03;4992657;28;20082;-79
2022/04/29 06:38:27;;;;;;;22.15;11.55;;;;;;;7.76;100.00;102544.38;5011915;28;20066;-78
2022/04/29 06:40:53;;;;;;;30.83;12.40;;;;;;;7.72;100.00;102551.78;4979297;28;20038;-77
2022/04/29 06:43:19;;;;;;;25.98;12.13;;;;;;;7.76;100.00;102547.09;4979335;28;20046;-78
2022/04/29 06:45:45;;;;;;;28.23;12.65;;;;;;;7.77;100.00;102556.16;4993883;28;20034;-78
2022/04/29 06:48:11;;;;;;;33.03;12.68;;;;;;;7.79;100.00;102554.25;4989694;28;20413;-79
2022/04/29 06:50:37;;;;;;;26.40;11.75;;;;;;;7.96;100.00;102562.66;4994305;28;20030;-79
2022/04/29 06:53:02;;;;;;;34.92;12.52;;;;;;;8.03;100.00;102557.84;4995218;28;20169;-78
2022/04/29 06:55:28;;;;;;;33.03;13.35;;;;;;;8.10;100.00;102552.06;4979360;28;20364;-77
2022/04/29 06:57:54;;;;;;;30.27;11.98;;;;;;;8.12;100.00;102560.19;4996893;28;20076;-77
2022/04/29 07:00:20;;;;;;;26.63;13.13;;;;;;;8.25;100.00;102557.84;4992114;28;20038;-80
2022/04/29 07:02:46;;;;;;;29.15;13.15;;;;;;;8.26;100.00;102565.97;4989830;28;20541;-80
2022/04/29 07:05:12;;;;;;;31.17;12.82;;;;;;;8.33;100.00;102563.88;4997674;28;20234;-77
2022/04/29 07:07:38;;;;;;;27.20;12.00;;;;;;;8.32;100.00;102555.75;4977756;28;20054;-79
2022/04/29 07:10:04;;;;;;;24.73;11.50;;;;;;;8.46;100.00;102561.53;4997092;28;20057;-80
2022/04/29 07:12:34;;;;;;;29.88;12.00;;;;;;;8.45;100.00;102562.50;4992749;28;20439;-81
2022/04/29 07:14:59;;;;;;;29.92;12.80;;;;;;;8.52;100.00;102561.25;4976968;28;20030;-81
2022/04/29 07:17:25;;;;;;;30.08;12.98;;;;;;;8.61;100.00;102563.59;4964946;28;20398;-81
2022/04/29 07:19:51;;;;;;;22.90;12.15;;;;;;;8.73;100.00;102559.44;4993034;28;20101;-81
2022/04/29 07:22:17;;;;;;;26.75;11.20;;;;;;;8.98;100.00;102558.34;4974356;28;20106;-80
2022/04/29 07:24:43;;;;;;;27.77;12.48;;;;;;;8.93;100.00;102552.22;4970870;28;20094;-82
2022/04/29 07:27:08;;;;;;;27.77;12.30;;;;;;;9.19;100.00;102549.19;4996912;28;20031;-81
2022/04/29 07:29:34;;;;;;;22.75;11.27;;;;;;;9.20;100.00;102552.81;4966727;28;20544;-81
2022/04/29 07:31:59;;;;;;;26.08;11.75;;;;;;;9.40;100.00;102559.22;4997578;28;20034;-81
2022/04/29 07:41:44;;;;;;;25.98;10.75;;;;;;;9.39;100.00;102558.31;4965899;28;20035;-81
2022/04/29 07:42:46;;;;;;;23.40;11.48;;;;;;;9.59;100.00;102560.09;4993600;28;20034;-82
2022/04/29 07:45:12;;;;;;;28.27;12.57;;;;;;;9.87;100.00;102562.41;4991264;28;20060;-81
2022/04/29 07:47:37;;;;;;;30.52;12.48;;;;;;;10.00;100.00;102550.84;4984353;28;20504;-81
2022/04/29 07:50:05;;;;;;;26.08;11.50;;;;;;;10.12;100.00;102570.28;4991984;28;20491;-81
2022/04/29 07:52:32;;;;;;;22.85;10.98;;;;;;;10.15;100.00;102555.56;4994234;28;20034;-82
2022/04/29 07:54:57;;;;;;;28.98;11.60;;;;;;;10.32;100.00;102562.06;4999102;28;20069;-81
2022/04/29 07:57:23;;;;;;;24.95;10.73;;;;;;;10.66;100.00;102559.38;4969858;28;20026;-82
2022/04/29 07:59:49;;;;;;;20.88;11.82;;;;;;;10.73;100.00;102570.03;5000336;28;20027;-81
2022/04/29 08:02:14;;;;;;;19.52;10.70;;;;;;;10.81;100.00;102557.69;4996005;28;20025;-80
2022/04/29 08:04:40;;;;;;;28.27;11.40;;;;;;;10.72;100.00;102563.63;4966874;28;20046;-81
2022/04/29 08:07:05;;;;;;;27.95;12.57;;;;;;;10.88;100.00;102549.16;4972843;28;20045;-81
2022/04/29 08:09:31;;;;;;;21.60;10.90;;;;;;;11.20;100.00;102562.00;4990116;28;20042;-79
2022/04/29 08:11:57;;;;;;;20.00;10.60;;;;;;;11.21;100.00;102566.53;4977435;28;20474;-80
2022/04/29 08:14:23;;;;;;;26.38;12.20;;;;;;;11.22;100.00;102560.06;4991775;28;20045;-80
2022/04/29 08:16:49;;;;;;;26.17;11.35;;;;;;;11.16;100.00;102567.72;4977675;28;20506;-80
2022/04/29 08:19:15;;;;;;;25.77;11.93;;;;;;;11.26;100.00;102570.88;4957212;28;20042;-79
2022/04/29 08:21:41;;;;;;;25.90;11.07;;;;;;;11.43;100.00;102565.34;4971524;28;20041;-79
2022/04/29 08:24:06;;;;;;;26.13;11.88;;;;;;;11.18;100.00;102574.91;4988074;28;20038;-80
2022/04/29 08:26:32;;;;;;;22.40;10.35;;;;;;;11.21;100.00;102569.28;4969015;28;20042;-80
2022/04/29 08:28:58;;;;;;;23.90;10.10;;;;;;;11.53;100.00;102568.47;4993146;28;20042;-79
2022/04/29 08:31:24;;;;;;;33.25;11.95;;;;;;;11.27;100.00;102561.69;4965666;28;20045;-80
2022/04/29 08:33:50;;;;;;;25.45;12.48;;;;;;;11.77;100.00;102569.84;4985418;28;20382;-80
2022/04/29 08:36:16;;;;;;;30.80;11.65;;;;;;;11.67;100.00;102578.66;4965912;28;20060;-81
2022/04/29 08:38:42;;;;;;;21.70;11.02;;;;;;;11.54;100.00;102578.44;4976671;28;20057;-80
2022/04/29 08:41:08;;;;;;;25.83;11.15;;;;;;;11.65;100.00;102580.59;4974579;28;20049;-80
2022/04/29 08:43:34;;;;;;;24.70;11.43;;;;;;;11.35;100.00;102573.13;4994101;28;20022;-80
2022/04/29 08:46:00;;;;;;;25.77;11.38;;;;;;;11.28;100.00;102558.84;5007285;28;20059;-81
2022/04/29 08:48:28;;;;;;;24.40;11.68;;;;;;;11.40;100.00;102581.97;4954452;28;20442;-80
2022/04/29 08:50:57;;;;;;;25.13;11.68;;;;;;;11.36;100.00;102569.38;4991469;28;20058;-79
2022/04/29 08:53:23;;;;;;;25.50;11.80;;;;;;;11.71;100.00;102567.44;4995203;28;20041;-80
2022/04/29 08:58:38;;;;;;;22.23;10.88;;;;;;;11.76;100.00;102578.16;4987756;28;20198;-79
2022/04/29 09:01:09;;;;;;;21.58;11.60;;;;;;;12.08;100.00;102579.06;4992866;28;20397;-80
2022/04/29 09:03:35;;;;;;;26.73;11.57;;;;;;;12.46;100.00;102566.81;4994357;28;20038;-80
2022/04/29 09:06:02;;;;;;;25.20;11.85;;;;;;;12.83;100.00;102568.22;4967130;28;20043;-81
2022/04/29 09:08:29;;;;;;;25.67;11.57;;;;;;;13.19;100.00;102577.03;4993678;28;20041;-81
2022/04/29 09:11:00;;;;;;;24.02;11.57;;;;;;;13.13;100.00;102571.91;4989827;28;20034;-81
2022/04/29 09:13:28;;;;;;;21.48;11.05;;;;;;;13.79;100.00;102571.38;5011286;28;20449;-81
2022/04/29 09:15:57;;;;;;;21.92;11.35;;;;;;;14.11;100.00;102573.00;4988696;28;20031;-81
2022/04/29 09:18:43;;;;;;;21.10;11.20;;;;;;;14.07;97.70;102555.81;4997661;28;20551;-81
2022/04/29 09:21:17;;;;;;;25.67;11.00;;;;;;;13.83;100.00;102573.94;4984896;28;20034;-79
2022/04/29 09:23:47;;;;;;;21.75;11.55;;;;;;;13.75;99.67;102567.06;4977637;28;20043;-81
2022/04/29 09:26:25;;;;;;;22.40;11.63;;;;;;;14.44;94.35;102567.06;4993741;28;20038;-81
2022/04/29 09:28:53;;;;;;;26.35;11.20;;;;;;;13.81;99.61;102570.38;5010869;28;20042;-81
2022/04/29 09:31:18;;;;;;;24.08;11.45;;;;;;;13.65;99.93;102568.63;4992221;28;20039;-80
2022/04/29 09:33:55;;;;;;;22.98;11.07;;;;;;;13.20;100.00;102556.81;4985450;28;20064;-82
2022/04/29 09:36:26;;;;;;;24.67;11.57;;;;;;;13.24;100.00;102552.88;4972693;28;20034;-82
2022/04/29 09:41:38;;;;;;;23.02;11.48;;;;;;;13.39;100.00;102554.69;4986111;28;20040;-81
2022/04/29 09:44:04;;;;;;;21.95;11.23;;;;;;;13.30;100.00;102555.25;4961218;28;20097;-81
2022/04/29 09:46:30;;;;;;;23.48;11.43;;;;;;;13.70;99.23;102557.34;4988197;28;20039;-80
2022/04/29 09:49:07;;;;;;;22.25;11.20;;;;;;;13.41;100.00;102549.09;4994919;28;20073;-81
2022/04/29 09:51:51;;;;;;;29.35;10.98;;;;;;;13.45;100.00;102549.78;4959410;28;20050;-81
2022/04/29 09:54:28;;;;;;;36.70;12.35;;;;;;;13.69;100.00;102533.53;4976183;28;20027;-81
2022/04/29 09:57:15;;;;;;;26.48;11.60;;;;;;;13.65;100.00;102548.50;4982910;28;20039;-81
2022/04/29 09:59:45;;;;;;;24.98;10.48;;;;;;;13.65;100.00;102537.50;4986454;28;20065;-80
2022/04/29 10:02:13;;;;;;;23.20;10.85;;;;;;;13.79;100.00;102538.34;5003212;28;20042;-81
2022/04/29 10:04:42;;;;;;;22.95;11.43;;;;;;;13.58;100.00;102542.50;4974591;28;20438;-80
2022/04/29 10:07:10;;;;;;;22.70;11.40;;;;;;;13.64;100.00;102543.97;4990856;28;20419;-81
2022/04/29 10:09:38;;;;;;;28.13;11.52;;;;;;;13.86;99.02;102557.22;4991514;28;20081;-81
2022/04/29 10:12:07;;;;;;;24.88;10.55;;;;;;;13.89;100.00;102544.13;4989301;28;20046;-81
2022/04/29 10:14:37;;;;;;;48.50;11.57;;;;;;;14.20;98.71;102557.72;4987017;28;20038;-80
2022/04/29 10:22:52;;;;;;;20.85;10.60;;;;;;;13.86;100.00;102551.72;4989539;28;20102;-81
2022/04/29 10:25:21;;;;;;;21.77;10.93;;;;;;;13.73;98.58;102549.75;4980646;28;20474;-81
2022/04/29 10:27:49;;;;;;;18.77;10.65;;;;;;;13.76;100.00;102543.19;4993911;28;20066;-80
2022/04/29 10:30:31;;;;;;;26.50;11.00;;;;;;;14.03;99.01;102543.19;4979830;28;20035;-81
2022/04/29 10:33:00;;;;;;;27.30;10.77;;;;;;;14.16;99.03;102557.91;5014664;28;20034;-81
2022/04/29 10:35:52;;;;;;;30.52;10.63;;;;;;;14.12;99.10;102550.00;4981924;28;20373;-81
2022/04/29 10:38:25;;;;;;;27.05;10.25;;;;;;;13.87;100.00;102536.94;4977202;28;20382;-80
2022/04/29 10:41:06;;;;;;;20.90;9.25;;;;;;;14.10;98.24;102543.69;4978514;28;20050;-80
2022/04/29 10:43:32;;;;;;;28.58;10.18;;;;;;;13.88;96.55;102539.59;4978149;28;20730;-80
2022/04/29 10:46:03;;;;;;;25.00;10.02;;;;;;;14.14;97.11;102546.13;4986122;28;20121;-80
2022/04/29 10:48:37;;;;;;;23.52;10.38;;;;;;;13.80;98.68;102544.72;4987163;28;20030;-81
2022/04/29 10:51:15;;;;;;;23.75;8.90;;;;;;;13.70;98.09;102536.19;4995872;28;20502;-81
2022/04/29 10:53:42;;;;;;;17.95;8.80;;;;;;;13.91;100.00;102533.03;5004507;28;20073;-80
2022/04/29 10:56:26;;;;;;;21.65;9.95;;;;;;;14.02;100.00;102532.28;4996058;28;20133;-80
2022/04/29 10:58:53;;;;;;;22.27;9.43;;;;;;;13.70;99.26;102530.69;4996093;28;20129;-80
2022/04/29 11:01:27;;;;;;;19.10;8.65;;;;;;;14.04;94.34;102522.06;4996604;28;20406;-80
2022/04/29 11:03:53;;;;;;;22.35;9.98;;;;;;;13.98;96.43;102512.34;4989599;28;20061;-80
2022/04/29 11:06:19;;;;;;;23.50;9.35;;;;;;;13.87;98.97;102518.59;4989775;28;20145;-81
2022/04/29 11:08:46;;;;;;;23.73;8.98;;;;;;;13.97;96.73;102521.59;4994577;28;20093;-81
2022/04/29 11:11:12;;;;;;;24.30;9.70;;;;;;;14.02;96.25;102524.03;4997906;28;20080;-81
2022/04/29 11:13:44;;;;;;;22.90;9.45;;;;;;;14.11;96.38;102520.66;4974770;28;20035;-80
2022/04/29 11:16:11;;;;;;;24.55;8.75;;;;;;;13.96;96.73;102509.69;4996452;28;20030;-80
2022/04/29 11:18:38;;;;;;;26.90;9.48;;;;;;;13.90;98.45;102515.59;4993053;28;20033;-80
2022/04/29 11:26:52;;;;;;;18.27;9.32;;;;;;;14.03;95.16;102504.66;4945669;28;20437;-80
2022/04/29 11:29:18;;;;;;;17.08;8.25;;;;;;;14.05;93.93;102507.28;4977608;28;20052;-80
2022/04/29 11:31:43;;;;;;;22.65;8.73;;;;;;;13.98;94.72;102517.84;5006568;28;20117;-80
2022/04/29 11:34:14;;;;;;;22.33;8.48;;;;;;;13.80;97.28;102508.94;4985240;28;20077;-80
2022/04/29 11:36:41;;;;;;;17.23;8.23;;;;;;;14.25;95.33;102503.19;5011775;28;20241;-79
2022/04/29 11:39:09;;;;;;;22.42;8.85;;;;;;;14.17;93.93;102500.97;4987802;28;20039;-80